createdAt,value
2018-04-20T00:01:15.346Z,28.63
2018-04-20T00:03:43.503Z,27.50
2018-04-20T00:06:11.678Z,22.27
2018-04-20T00:08:39.861Z,22.67
2018-04-20T00:11:08.066Z,24.13
2018-04-20T00:13:37.002Z,24.20
2018-04-20T00:16:05.169Z,22.10
2018-04-20T00:18:33.350Z,23.30
2018-04-20T00:21:01.538Z,36.27
2018-04-20T00:23:29.724Z,25.63
2018-04-20T00:25:57.929Z,25.87
2018-04-20T00:28:26.150Z,23.30
2018-04-20T00:30:55.109Z,21.77
2018-04-20T00:33:23.294Z,18.70
2018-04-20T00:35:51.461Z,21.00
2018-04-20T00:38:19.616Z,22.23
2018-04-20T00:40:47.805Z,26.30
2018-04-20T00:43:15.970Z,25.67
2018-04-20T00:45:44.149Z,22.93
2018-04-20T00:48:12.330Z,29.17
2018-04-20T00:50:40.497Z,24.10
2018-04-20T00:53:08.676Z,22.50
2018-04-20T00:55:36.851Z,23.13
2018-04-20T00:58:05.070Z,26.87
2018-04-20T01:00:33.232Z,27.03
2018-04-20T01:03:02.187Z,24.50
2018-04-20T01:05:30.401Z,24.40
2018-04-20T01:07:58.586Z,26.30
2018-04-20T01:10:26.761Z,36.37
2018-04-20T01:12:55.713Z,25.20
2018-04-20T01:15:23.869Z,25.43
2018-04-20T01:17:52.268Z,20.80
2018-04-20T01:20:20.408Z,21.80
2018-04-20T01:22:48.562Z,21.33
2018-04-20T01:25:17.489Z,25.07
2018-04-20T01:27:45.670Z,28.47
2018-04-20T01:30:13.834Z,26.53
2018-04-20T01:32:42.002Z,30.93
2018-04-20T01:35:10.146Z,33.00
2018-04-20T01:37:39.070Z,24.63
2018-04-20T01:40:07.268Z,22.60
2018-04-20T01:42:35.426Z,28.03
2018-04-20T01:45:03.556Z,23.73
2018-04-20T01:47:31.710Z,27.67
2018-04-20T01:50:00.601Z,29.73
2018-04-20T01:52:28.748Z,25.57
2018-04-20T01:55:06.816Z,26.63
2018-04-20T01:57:34.976Z,25.17
2018-04-20T02:00:03.901Z,30.70
2018-04-20T02:02:32.024Z,33.13
2018-04-20T02:05:01.028Z,29.53
2018-04-20T02:07:29.236Z,25.37
2018-04-20T02:09:57.489Z,36.77
2018-04-20T02:12:25.636Z,27.93
2018-04-20T02:14:54.573Z,37.00
2018-04-20T02:17:22.735Z,28.20
2018-04-20T02:19:50.931Z,37.43
2018-04-20T02:22:19.095Z,25.77
2018-04-20T02:24:47.236Z,30.53
2018-04-20T02:27:15.434Z,34.63
2018-04-20T02:29:43.581Z,31.30
2018-04-20T02:32:11.742Z,31.67
2018-04-20T02:34:39.928Z,35.33
2018-04-20T02:37:08.066Z,32.73
2018-04-20T02:39:36.277Z,32.70
2018-04-20T02:42:04.485Z,33.40
2018-04-20T02:44:32.670Z,40.13
2018-04-20T02:47:00.801Z,31.27
2018-04-20T02:49:28.975Z,38.80
2018-04-20T02:51:57.163Z,34.97
2018-04-20T02:54:25.428Z,28.57
2018-04-20T02:56:53.656Z,41.13
2018-04-20T02:59:21.927Z,35.80
2018-04-20T03:01:50.081Z,35.47
2018-04-20T03:04:18.300Z,44.57
2018-04-20T03:06:46.578Z,30.63
2018-04-20T03:09:14.994Z,41.77
2018-04-20T03:11:43.162Z,32.57
2018-04-20T03:14:11.326Z,37.63
2018-04-20T03:16:39.477Z,34.97
2018-04-20T03:19:07.688Z,38.20
2018-04-20T03:21:35.929Z,35.40
2018-04-20T03:24:04.177Z,32.83
2018-04-20T03:26:32.481Z,35.00
2018-04-20T03:29:00.610Z,34.80
2018-04-20T03:31:28.774Z,38.27
2018-04-20T03:33:56.948Z,35.80
2018-04-20T03:36:25.180Z,30.83
2018-04-20T03:38:53.386Z,48.77
2018-04-20T03:41:21.590Z,38.20
2018-04-20T03:43:51.046Z,34.23
2018-04-20T03:46:19.202Z,29.77
2018-04-20T03:48:47.390Z,50.03
2018-04-20T03:51:15.514Z,50.53
2018-04-20T03:53:44.496Z,38.27
2018-04-20T03:56:13.443Z,39.23
2018-04-20T03:58:41.648Z,38.90
2018-04-20T04:01:09.796Z,36.20
2018-04-20T04:03:37.969Z,43.70
2018-04-20T04:06:06.159Z,38.87
2018-04-20T04:08:34.297Z,38.50
2018-04-20T04:11:03.395Z,36.17
2018-04-20T04:13:31.588Z,36.30
2018-04-20T04:15:59.712Z,43.60
2018-04-20T04:18:46.582Z,42.47
2018-04-20T04:24:41.880Z,39.57
2018-04-20T04:27:41.693Z,45.00
2018-04-20T04:30:09.869Z,42.10
2018-04-20T04:32:38.028Z,35.50
2018-04-20T04:35:06.330Z,41.50
2018-04-20T04:37:34.693Z,32.37
2018-04-20T04:40:02.889Z,49.60
2018-04-20T04:42:31.041Z,46.37
2018-04-20T04:44:59.260Z,40.47
2018-04-20T04:47:37.403Z,31.20
2018-04-20T04:50:05.577Z,39.67
2018-04-20T04:52:33.821Z,30.33
2018-04-20T04:55:02.758Z,29.67
2018-04-20T04:57:30.984Z,35.27
2018-04-20T04:59:59.108Z,31.13
2018-04-20T05:02:28.118Z,33.00
2018-04-20T05:04:56.277Z,37.03
2018-04-20T05:07:24.529Z,31.83
2018-04-20T05:09:52.680Z,33.87
2018-04-20T05:12:21.577Z,29.63
2018-04-20T05:14:50.574Z,31.60
2018-04-20T05:17:18.733Z,38.63
2018-04-20T05:19:47.664Z,40.10
2018-04-20T05:22:15.846Z,31.63
2018-04-20T05:24:44.046Z,41.60
2018-04-20T05:27:12.182Z,36.63
2018-04-20T05:29:40.308Z,30.43
2018-04-20T05:32:08.477Z,25.53
2018-04-20T05:34:36.597Z,28.33
2018-04-20T05:37:04.788Z,31.20
2018-04-20T05:39:32.962Z,32.93
2018-04-20T05:42:01.153Z,40.43
2018-04-20T05:44:29.280Z,33.53
2018-04-20T05:46:57.414Z,47.87
2018-04-20T05:49:25.590Z,34.70
2018-04-20T05:51:54.562Z,31.97
2018-04-20T05:54:22.759Z,34.20
2018-04-20T05:56:51.654Z,34.13
2018-04-20T05:59:20.585Z,24.83
2018-04-20T06:01:52.162Z,27.17
2018-04-20T06:04:20.686Z,24.03
2018-04-20T06:06:49.621Z,25.03
2018-04-20T06:09:17.819Z,28.07
2018-04-20T06:11:45.993Z,27.07
2018-04-20T06:14:14.179Z,29.07
2018-04-20T06:16:43.109Z,23.40
2018-04-20T06:19:11.233Z,33.37
2018-04-20T06:21:39.417Z,28.27
2018-04-20T06:24:08.395Z,23.30
2018-04-20T06:26:36.524Z,27.40
2018-04-20T06:29:04.645Z,22.60
2018-04-20T06:31:32.857Z,26.20
2018-04-20T06:34:01.024Z,24.57
2018-04-20T06:36:29.157Z,22.00
2018-04-20T06:38:58.206Z,23.37
2018-04-20T06:41:26.481Z,23.07
2018-04-20T06:43:55.556Z,24.70
2018-04-20T06:46:23.706Z,22.30
2018-04-20T06:48:52.666Z,25.73
2018-04-20T06:51:20.946Z,22.40
2018-04-20T06:53:49.064Z,22.93
2018-04-20T06:56:18.155Z,22.13
2018-04-20T06:58:47.319Z,21.30
2018-04-20T07:01:15.529Z,21.17
2018-04-20T07:03:43.674Z,22.93
2018-04-20T07:06:11.807Z,24.40
2018-04-20T07:08:40.005Z,22.03
2018-04-20T07:11:08.178Z,25.23
2018-04-20T07:13:36.353Z,23.60
2018-04-20T07:16:04.509Z,18.23
2018-04-20T07:18:32.641Z,32.67
2018-04-20T07:21:00.850Z,18.93
2018-04-20T07:23:29.003Z,25.70
2018-04-20T07:25:57.949Z,24.60
2018-04-20T07:28:26.877Z,20.87
2018-04-20T07:30:55.022Z,23.83
2018-04-20T07:33:23.932Z,20.87
2018-04-20T07:35:52.065Z,22.80
2018-04-20T07:38:20.245Z,21.87
2018-04-20T07:40:48.427Z,31.87
2018-04-20T07:43:17.350Z,21.97
2018-04-20T07:45:45.530Z,21.03
2018-04-20T07:48:13.686Z,21.27
2018-04-20T07:50:41.837Z,18.73
2018-04-20T07:53:10.774Z,20.57
2018-04-20T07:55:38.937Z,22.00
2018-04-20T07:58:07.111Z,23.03
2018-04-20T08:00:35.283Z,17.80
2018-04-20T08:03:03.410Z,22.20
2018-04-20T08:05:31.526Z,17.10
2018-04-20T08:07:59.735Z,20.87
2018-04-20T08:10:27.858Z,18.53
2018-04-20T08:12:56.006Z,18.60
2018-04-20T08:15:24.924Z,17.00
2018-04-20T08:17:53.934Z,20.77
2018-04-20T08:20:22.092Z,19.77
2018-04-20T08:22:50.229Z,20.63
2018-04-20T08:25:19.223Z,20.67
2018-04-20T08:27:48.248Z,17.27
2018-04-20T08:30:16.401Z,23.50
2018-04-20T08:32:45.330Z,22.93
2018-04-20T08:35:13.473Z,15.03
2018-04-20T08:37:41.618Z,16.20
2018-04-20T08:40:09.798Z,18.77
2018-04-20T08:42:38.721Z,20.20
2018-04-20T08:45:06.847Z,21.00
2018-04-20T08:47:35.022Z,17.20
2018-04-20T08:50:03.924Z,12.83
2018-04-20T08:52:32.828Z,19.43
2018-04-20T08:55:01.725Z,15.90
2018-04-20T08:57:29.885Z,14.23
2018-04-20T08:59:58.794Z,24.70
2018-04-20T09:02:26.982Z,23.03
2018-04-20T09:04:55.158Z,14.87
2018-04-20T09:07:23.304Z,13.67
2018-04-20T09:09:51.538Z,24.13
2018-04-20T09:12:19.690Z,17.47
2018-04-20T09:14:47.844Z,15.83
2018-04-20T09:17:15.956Z,26.40
2018-04-20T09:19:44.135Z,17.00
2018-04-20T09:22:12.252Z,19.87
2018-04-20T09:24:40.417Z,21.93
2018-04-20T09:27:08.548Z,18.77
2018-04-20T09:29:37.210Z,16.60
2018-04-20T09:32:05.373Z,20.03
2018-04-20T09:34:33.525Z,22.70
2018-04-20T09:37:01.730Z,15.10
2018-04-20T09:39:29.856Z,20.40
2018-04-20T09:41:58.782Z,16.07
2018-04-20T09:44:27.022Z,22.13
2018-04-20T09:46:55.947Z,18.53
2018-04-20T09:49:24.116Z,15.40
2018-04-20T09:51:52.365Z,19.70
2018-04-20T09:54:20.541Z,18.50
2018-04-20T09:56:48.723Z,30.33
2018-04-20T09:59:16.844Z,17.77
2018-04-20T10:01:45.746Z,17.27
2018-04-20T10:04:18.539Z,19.23
2018-04-20T10:06:47.540Z,19.00
2018-04-20T10:09:15.661Z,20.10
2018-04-20T10:11:43.797Z,18.43
2018-04-20T10:14:11.961Z,22.13
2018-04-20T10:16:40.144Z,20.83
2018-04-20T10:19:08.306Z,19.30
2018-04-20T10:21:36.503Z,15.40
2018-04-20T10:24:04.632Z,23.57
2018-04-20T10:26:33.579Z,19.37
2018-04-20T10:29:01.716Z,13.87
2018-04-20T10:31:29.840Z,15.93
2018-04-20T10:33:58.176Z,14.50
2018-04-20T10:36:26.317Z,14.23
2018-04-20T10:38:55.228Z,17.70
2018-04-20T10:41:23.352Z,15.13
2018-04-20T10:43:51.508Z,24.43
2018-04-20T10:46:19.683Z,13.20
2018-04-20T10:48:47.842Z,17.10
2018-04-20T10:51:15.998Z,17.03
2018-04-20T10:53:44.168Z,15.10
2018-04-20T10:56:12.320Z,13.77
2018-04-20T10:58:41.355Z,12.17
2018-04-20T11:01:09.561Z,16.37
2018-04-20T11:03:37.739Z,13.03
2018-04-20T11:06:05.913Z,11.80
2018-04-20T11:08:34.066Z,13.87
2018-04-20T11:11:02.215Z,15.60
2018-04-20T11:13:30.477Z,16.93
2018-04-20T11:15:58.655Z,11.70
2018-04-20T11:18:26.821Z,16.87
2018-04-20T11:20:55.018Z,14.83
2018-04-20T11:23:23.174Z,10.50
2018-04-20T11:25:51.332Z,14.17
2018-04-20T11:28:19.474Z,17.73
2018-04-20T11:30:48.376Z,12.73
2018-04-20T11:33:17.312Z,12.97
2018-04-20T11:35:45.453Z,12.40
2018-04-20T11:38:13.636Z,12.30
2018-04-20T11:40:41.793Z,12.23
2018-04-20T11:43:09.995Z,12.93
2018-04-20T11:45:38.140Z,17.53
2018-04-20T11:48:06.290Z,13.87
2018-04-20T11:50:35.209Z,15.57
2018-04-20T11:53:03.381Z,17.00
2018-04-20T11:55:31.529Z,18.40
2018-04-20T11:58:00.486Z,17.87
2018-04-20T12:00:28.617Z,11.00
2018-04-20T12:02:56.765Z,10.83
2018-04-20T12:05:24.885Z,13.10
2018-04-20T12:07:53.670Z,12.40
2018-04-20T12:10:21.800Z,10.63
2018-04-20T12:12:50.734Z,14.03
2018-04-20T12:15:19.338Z,9.20
2018-04-20T12:17:48.293Z,11.90
2018-04-20T12:20:16.442Z,12.67
2018-04-20T12:22:45.487Z,10.20
2018-04-20T12:25:13.633Z,13.73
2018-04-20T12:27:41.793Z,12.80
2018-04-20T12:30:10.665Z,9.90
2018-04-20T12:32:39.601Z,8.27
2018-04-20T12:35:07.726Z,13.27
2018-04-20T12:37:36.673Z,12.40
2018-04-20T12:40:04.824Z,10.50
2018-04-20T12:42:32.964Z,8.73
2018-04-20T12:45:01.875Z,10.43
2018-04-20T12:47:30.124Z,16.00
2018-04-20T12:49:58.262Z,10.47
2018-04-20T12:52:26.404Z,9.70
2018-04-20T12:54:54.590Z,12.20
2018-04-20T12:57:22.793Z,11.37
2018-04-20T12:59:50.951Z,9.63
2018-04-20T13:02:19.113Z,9.00
2018-04-20T13:04:47.286Z,9.13
2018-04-20T13:07:15.441Z,11.23
2018-04-20T13:09:43.605Z,8.50
2018-04-20T13:12:11.757Z,11.10
2018-04-20T13:14:40.698Z,8.33
2018-04-20T13:17:08.952Z,8.80
2018-04-20T13:19:37.149Z,11.00
2018-04-20T13:22:05.431Z,9.30
2018-04-20T13:24:33.564Z,9.77
2018-04-20T13:27:01.770Z,7.83
2018-04-20T13:29:29.918Z,9.23
2018-04-20T13:31:58.032Z,9.70
2018-04-20T13:34:26.176Z,8.90
2018-04-20T13:36:54.354Z,9.17
2018-04-20T13:39:22.491Z,9.80
2018-04-20T13:41:50.617Z,13.00
2018-04-20T13:44:18.844Z,8.97
2018-04-20T13:46:47.014Z,8.40
2018-04-20T13:49:15.179Z,10.00
2018-04-20T13:51:43.352Z,13.50
2018-04-20T13:54:11.535Z,11.83
2018-04-20T13:56:39.704Z,10.10
2018-04-20T13:59:07.872Z,14.80
2018-04-20T14:01:36.072Z,9.43
2018-04-20T14:04:04.204Z,9.43
2018-04-20T14:06:33.122Z,10.50
2018-04-20T14:09:01.294Z,12.47
2018-04-20T14:11:29.460Z,8.47
2018-04-20T14:13:57.589Z,12.70
2018-04-20T14:16:25.846Z,16.00
2018-04-20T14:18:54.117Z,11.53
2018-04-20T14:21:22.238Z,8.13
2018-04-20T14:23:51.120Z,11.97
2018-04-20T14:26:20.092Z,9.93
2018-04-20T14:28:49.241Z,10.63
2018-04-20T14:31:17.391Z,9.23
2018-04-20T14:33:56.338Z,9.03
2018-04-20T14:36:24.486Z,15.87
2018-04-20T14:38:53.405Z,11.90
2018-04-20T14:41:21.546Z,10.33
2018-04-20T14:43:50.560Z,9.20
2018-04-20T14:46:19.481Z,9.60
2018-04-20T14:48:47.646Z,10.90
2018-04-20T14:51:15.827Z,10.67
2018-04-20T14:53:44.068Z,10.10
2018-04-20T14:56:12.195Z,21.77
2018-04-20T14:58:40.433Z,11.77
2018-04-20T15:01:08.577Z,7.57
2018-04-20T15:06:36.183Z,11.40
2018-04-20T15:09:04.313Z,8.07
2018-04-20T15:11:33.218Z,9.80
2018-04-20T15:14:01.385Z,9.27
2018-04-20T15:16:30.314Z,9.27
2018-04-20T15:18:58.527Z,8.70
2018-04-20T15:21:26.630Z,11.00
2018-04-20T15:23:54.797Z,10.63
2018-04-20T15:26:23.558Z,11.70
2018-04-20T15:28:52.511Z,9.30
2018-04-20T15:31:20.671Z,10.00
2018-04-20T15:33:50.140Z,10.20
2018-04-20T15:36:19.040Z,13.27
2018-04-20T15:38:48.685Z,9.03
2018-04-20T15:41:16.837Z,13.00
2018-04-20T15:43:44.990Z,11.00
2018-04-20T15:46:14.798Z,14.53
2018-04-20T15:48:43.724Z,9.13
2018-04-20T15:51:11.960Z,9.90
2018-04-20T15:53:41.434Z,11.17
2018-04-20T15:56:09.559Z,12.37
2018-04-20T15:58:37.714Z,10.70
2018-04-20T16:01:06.641Z,10.17
2018-04-20T16:03:34.757Z,11.00
2018-04-20T16:06:03.071Z,14.27
2018-04-20T16:08:31.202Z,10.37
2018-04-20T16:11:00.154Z,13.30
2018-04-20T16:13:28.406Z,12.03
2018-04-20T16:15:56.549Z,13.43
2018-04-20T16:18:25.473Z,11.00
2018-04-20T16:20:53.596Z,13.40
2018-04-20T16:23:21.764Z,12.77
2018-04-20T16:25:49.969Z,17.23
2018-04-20T16:28:18.158Z,12.80
2018-04-20T16:30:46.331Z,12.13
2018-04-20T16:33:14.595Z,10.00
2018-04-20T16:35:42.810Z,17.23
2018-04-20T16:38:11.087Z,12.70
2018-04-20T16:40:39.217Z,12.27
2018-04-20T16:43:08.255Z,12.77
2018-04-20T16:45:36.413Z,12.57
2018-04-20T16:48:04.587Z,18.07
2018-04-20T16:50:32.739Z,15.30
2018-04-20T16:53:00.918Z,18.77
2018-04-20T16:55:29.086Z,16.47
2018-04-20T16:57:57.220Z,19.40
2018-04-20T17:00:25.366Z,17.53
2018-04-20T17:02:53.537Z,14.87
2018-04-20T17:05:21.726Z,14.67
2018-04-20T17:07:50.801Z,15.70
2018-04-20T17:10:18.965Z,24.37
2018-04-20T17:12:47.120Z,18.77
2018-04-20T17:15:15.304Z,15.67
2018-04-20T17:17:43.496Z,17.00
2018-04-20T17:20:11.623Z,16.27
2018-04-20T17:22:40.561Z,13.07
2018-04-20T17:25:08.741Z,14.87
2018-04-20T17:27:36.927Z,18.70
2018-04-20T17:30:05.084Z,13.87
2018-04-20T17:32:33.237Z,20.63
2018-04-20T17:35:01.398Z,16.70
2018-04-20T17:37:29.572Z,13.83
2018-04-20T17:39:57.759Z,13.27
2018-04-20T17:42:25.892Z,17.67
2018-04-20T17:44:54.806Z,17.50
2018-04-20T17:47:23.025Z,15.33
2018-04-20T17:49:51.184Z,17.17
2018-04-20T17:52:19.348Z,16.13
2018-04-20T17:54:47.533Z,20.80
2018-04-20T17:57:15.710Z,18.00
2018-04-20T17:59:44.646Z,13.80
2018-04-20T18:02:12.793Z,18.37
2018-04-20T18:04:40.946Z,15.53
2018-04-20T18:07:09.081Z,15.87
2018-04-20T18:09:37.232Z,16.60
2018-04-20T18:12:06.148Z,19.13
2018-04-20T18:14:34.268Z,16.67
2018-04-20T18:17:02.442Z,23.13
2018-04-20T18:19:30.908Z,15.70
2018-04-20T18:21:59.085Z,14.90
2018-04-20T18:24:28.016Z,23.03
2018-04-20T18:26:56.178Z,20.10
2018-04-20T18:29:25.106Z,16.00
2018-04-20T18:31:53.253Z,20.60
2018-04-20T18:34:22.104Z,14.80
2018-04-20T18:36:50.342Z,20.40
2018-04-20T18:39:18.526Z,21.10
2018-04-20T18:41:46.783Z,23.80
2018-04-20T18:44:15.109Z,20.17
2018-04-20T18:46:44.005Z,25.17
2018-04-20T18:49:12.891Z,22.40
2018-04-20T18:51:41.057Z,26.43
2018-04-20T18:54:09.286Z,36.57
2018-04-20T18:56:37.867Z,20.27
2018-04-20T18:59:06.027Z,21.37
2018-04-20T19:01:34.162Z,22.53
2018-04-20T19:04:02.300Z,23.43
2018-04-20T19:06:30.447Z,28.57
2018-04-20T19:08:58.584Z,25.80
2018-04-20T19:11:26.714Z,28.83
2018-04-20T19:13:54.864Z,25.93
2018-04-20T19:16:23.010Z,19.33
2018-04-20T19:19:18.921Z,41.27
2018-04-20T19:21:47.872Z,19.90
2018-04-20T19:24:16.049Z,21.70
2018-04-20T19:26:44.198Z,24.60
2018-04-20T19:29:12.390Z,16.73
2018-04-20T19:31:40.529Z,20.40
2018-04-20T19:34:08.718Z,32.70
2018-04-20T19:36:37.785Z,15.80
2018-04-20T19:39:06.695Z,20.33
2018-04-20T19:41:34.859Z,21.00
2018-04-20T19:44:02.986Z,24.40
2018-04-20T19:46:31.186Z,18.20
2018-04-20T19:49:00.117Z,23.40
2018-04-20T19:51:28.233Z,22.40
2018-04-20T19:53:56.370Z,17.40
2018-04-20T19:56:24.567Z,20.33
2018-04-20T19:58:52.713Z,22.93
2018-04-20T20:01:20.894Z,19.57
2018-04-20T20:03:49.171Z,20.10
2018-04-20T20:06:17.385Z,19.03
2018-04-20T20:08:46.313Z,19.73
2018-04-20T20:11:14.437Z,17.00
2018-04-20T20:13:42.581Z,25.63
2018-04-20T20:16:10.704Z,22.80
2018-04-20T20:18:39.742Z,20.30
2018-04-20T20:21:07.942Z,21.60
2018-04-20T20:23:36.093Z,23.97
2018-04-20T20:26:04.309Z,15.33
2018-04-20T20:28:33.350Z,21.23
2018-04-20T20:31:01.593Z,23.53
2018-04-20T20:33:29.805Z,24.37
2018-04-20T20:35:57.937Z,22.23
2018-04-20T20:38:26.137Z,19.43
2018-04-20T20:40:54.293Z,20.73
2018-04-20T20:43:22.478Z,18.53
2018-04-20T20:45:51.254Z,25.10
2018-04-20T20:48:19.558Z,22.50
2018-04-20T20:50:47.731Z,16.73
2018-04-20T20:53:15.914Z,21.83
2018-04-20T20:55:44.149Z,18.00
2018-04-20T20:58:12.269Z,19.80
2018-04-20T21:00:40.413Z,18.83
2018-04-20T21:03:08.658Z,22.43
2018-04-20T21:05:36.789Z,20.70
2018-04-20T21:08:05.005Z,18.30
2018-04-20T21:10:33.159Z,20.13
2018-04-20T21:13:02.054Z,23.03
2018-04-20T21:15:30.991Z,20.70
2018-04-20T21:17:59.171Z,17.93
2018-04-20T21:20:27.325Z,18.90
2018-04-20T21:22:55.480Z,21.37
2018-04-20T21:25:23.613Z,20.90
2018-04-20T21:27:52.543Z,18.13
2018-04-20T21:30:20.685Z,18.97
2018-04-20T21:32:48.890Z,21.60
2018-04-20T21:35:17.025Z,27.13
2018-04-20T21:37:45.268Z,19.80
2018-04-20T21:40:13.441Z,26.10
2018-04-20T21:42:41.632Z,22.20
2018-04-20T21:45:09.789Z,18.43
2018-04-20T21:47:37.932Z,20.60
2018-04-20T21:50:06.049Z,21.30
2018-04-20T21:52:34.197Z,26.27
2018-04-20T21:55:02.317Z,26.97
2018-04-20T21:57:31.200Z,23.07
2018-04-20T22:00:00.154Z,25.60
2018-04-20T22:02:28.303Z,23.87
2018-04-20T22:04:56.417Z,19.20
2018-04-20T22:07:25.062Z,19.50
2018-04-20T22:09:53.258Z,31.73
2018-04-20T22:12:21.433Z,23.80
2018-04-20T22:14:49.604Z,43.40
2018-04-20T22:17:18.468Z,21.23
2018-04-20T22:19:46.585Z,27.83
2018-04-20T22:22:14.737Z,30.73
2018-04-20T22:24:43.507Z,25.43
2018-04-20T22:27:11.666Z,29.80
2018-04-20T22:29:39.813Z,25.03
2018-04-20T22:32:08.742Z,27.43
2018-04-20T22:34:36.885Z,23.63
2018-04-20T22:37:05.775Z,30.47
2018-04-20T22:39:34.709Z,23.63
2018-04-20T22:42:02.873Z,30.27
2018-04-20T22:44:31.046Z,24.80
2018-04-20T22:46:59.205Z,25.10
2018-04-20T22:49:27.353Z,23.37
2018-04-20T22:51:56.365Z,33.80
2018-04-20T22:54:24.536Z,25.77
2018-04-20T22:56:52.668Z,27.73
2018-04-20T22:59:21.025Z,27.07
2018-04-20T23:01:49.192Z,28.23
2018-04-20T23:04:17.313Z,23.50
2018-04-20T23:06:46.224Z,30.83
2018-04-20T23:09:14.416Z,26.33
2018-04-20T23:11:42.557Z,22.90
2018-04-20T23:14:10.727Z,27.67
2018-04-20T23:16:38.939Z,27.07
2018-04-20T23:19:07.130Z,25.07
2018-04-20T23:21:35.284Z,21.10
2018-04-20T23:24:03.421Z,26.80
2018-04-20T23:26:31.581Z,24.20
2018-04-20T23:28:59.745Z,26.77
2018-04-20T23:31:28.660Z,22.87
2018-04-20T23:33:56.807Z,23.07
2018-04-20T23:36:24.954Z,26.10
2018-04-20T23:38:53.121Z,25.67
2018-04-20T23:41:21.269Z,30.90
2018-04-20T23:43:50.172Z,30.90
2018-04-20T23:46:18.317Z,27.13
2018-04-20T23:48:46.488Z,23.27
2018-04-20T23:51:14.647Z,23.80
2018-04-20T23:53:48.435Z,22.43
2018-04-20T23:56:17.381Z,30.30
2018-04-20T23:58:45.548Z,26.27
